sensor_id;sensor_type;location;lat;lon;timestamp;pressure;altitude;pressure_sealevel;temperature;humidity
39954;BME280;25631;51.516;-0.470;2023-07-02T00:01:47;100789.62;;;17.48;32.73
39954;BME280;25631;51.516;-0.470;2023-07-02T00:04:24;100792.71;;;17.57;32.68
39954;BME280;25631;51.516;-0.470;2023-07-02T00:07:00;100793.52;;;17.83;32.50
39954;BME280;25631;51.516;-0.470;2023-07-02T00:09:37;100793.49;;;17.47;32.60
39954;BME280;25631;51.516;-0.470;2023-07-02T00:12:13;100794.36;;;17.65;32.61
39954;BME280;25631;51.516;-0.470;2023-07-02T00:14:50;100798.11;;;17.91;32.68
39954;BME280;25631;51.516;-0.470;2023-07-02T00:17:26;100800.54;;;17.23;32.82
39954;BME280;25631;51.516;-0.470;2023-07-02T00:20:04;100800.49;;;17.65;33.04
39954;BME280;25631;51.516;-0.470;2023-07-02T00:22:41;100800.37;;;17.32;33.30
39954;BME280;25631;51.516;-0.470;2023-07-02T00:25:18;100797.57;;;17.56;33.34
39954;BME280;25631;51.516;-0.470;2023-07-02T00:27:54;100796.83;;;17.46;33.34
39954;BME280;25631;51.516;-0.470;2023-07-02T00:30:32;100791.76;;;17.51;33.44
39954;BME280;25631;51.516;-0.470;2023-07-02T00:33:08;100792.82;;;17.79;33.51
39954;BME280;25631;51.516;-0.470;2023-07-02T00:35:44;100791.54;;;17.26;33.69
39954;BME280;25631;51.516;-0.470;2023-07-02T00:38:22;100793.41;;;17.47;33.83
39954;BME280;25631;51.516;-0.470;2023-07-02T00:40:58;100790.20;;;17.47;33.91
39954;BME280;25631;51.516;-0.470;2023-07-02T00:43:35;100789.49;;;16.98;34.13
39954;BME280;25631;51.516;-0.470;2023-07-02T00:46:15;100785.81;;;17.08;34.35
39954;BME280;25631;51.516;-0.470;2023-07-02T00:48:53;100785.01;;;16.76;34.76
39954;BME280;25631;51.516;-0.470;2023-07-02T00:51:30;100785.65;;;16.83;34.81
39954;BME280;25631;51.516;-0.470;2023-07-02T00:54:07;100788.69;;;16.92;34.86
39954;BME280;25631;51.516;-0.470;2023-07-02T00:56:44;100790.10;;;16.63;35.13
39954;BME280;25631;51.516;-0.470;2023-07-02T00:59:21;100791.99;;;16.56;35.15
39954;BME280;25631;51.516;-0.470;2023-07-02T01:01:58;100795.38;;;16.50;35.18
39954;BME280;25631;51.516;-0.470;2023-07-02T01:04:34;100796.79;;;16.30;35.40
39954;BME280;25631;51.516;-0.470;2023-07-02T01:07:11;100799.96;;;16.34;35.52
39954;BME280;25631;51.516;-0.470;2023-07-02T01:09:47;100801.95;;;16.30;35.81
39954;BME280;25631;51.516;-0.470;2023-07-02T01:12:25;100811.05;;;16.22;35.87
39954;BME280;25631;51.516;-0.470;2023-07-02T01:15:03;100813.80;;;16.16;35.75
39954;BME280;25631;51.516;-0.470;2023-07-02T01:17:41;100814.54;;;15.98;35.84
39954;BME280;25631;51.516;-0.470;2023-07-02T01:20:18;100817.19;;;16.17;35.76
39954;BME280;25631;51.516;-0.470;2023-07-02T01:22:55;100820.87;;;16.19;35.74
39954;BME280;25631;51.516;-0.470;2023-07-02T01:25:31;100821.01;;;15.91;35.72
39954;BME280;25631;51.516;-0.470;2023-07-02T01:28:08;100823.97;;;16.12;35.69
39954;BME280;25631;51.516;-0.470;2023-07-02T01:30:44;100820.07;;;16.02;35.59
39954;BME280;25631;51.516;-0.470;2023-07-02T01:33:21;100819.58;;;16.17;35.41
39954;BME280;25631;51.516;-0.470;2023-07-02T01:35:58;100820.67;;;15.92;35.33
39954;BME280;25631;51.516;-0.470;2023-07-02T01:38:34;100821.34;;;16.21;35.24
39954;BME280;25631;51.516;-0.470;2023-07-02T01:41:11;100825.48;;;16.18;35.22
39954;BME280;25631;51.516;-0.470;2023-07-02T01:43:48;100826.73;;;16.29;35.21
39954;BME280;25631;51.516;-0.470;2023-07-02T01:46:24;100827.99;;;15.95;35.18
39954;BME280;25631;51.516;-0.470;2023-07-02T01:49:00;100833.75;;;15.93;35.34
39954;BME280;25631;51.516;-0.470;2023-07-02T01:51:37;100836.34;;;15.90;35.42
39954;BME280;25631;51.516;-0.470;2023-07-02T01:54:13;100836.17;;;15.82;35.42
39954;BME280;25631;51.516;-0.470;2023-07-02T01:56:50;100835.92;;;15.76;35.38
39954;BME280;25631;51.516;-0.470;2023-07-02T01:59:26;100837.59;;;15.56;35.36
39954;BME280;25631;51.516;-0.470;2023-07-02T02:02:08;100838.30;;;15.55;35.37
39954;BME280;25631;51.516;-0.470;2023-07-02T02:04:44;100839.38;;;15.34;35.49
39954;BME280;25631;51.516;-0.470;2023-07-02T02:07:21;100838.96;;;15.54;35.46
39954;BME280;25631;51.516;-0.470;2023-07-02T02:09:57;100837.98;;;15.32;35.51
39954;BME280;25631;51.516;-0.470;2023-07-02T02:12:34;100838.05;;;15.36;35.43
39954;BME280;25631;51.516;-0.470;2023-07-02T02:15:11;100839.85;;;15.38;35.41
39954;BME280;25631;51.516;-0.470;2023-07-02T02:17:47;100837.43;;;15.43;35.46
39954;BME280;25631;51.516;-0.470;2023-07-02T02:20:23;100837.60;;;15.42;35.41
39954;BME280;25631;51.516;-0.470;2023-07-02T02:23:00;100835.38;;;15.18;35.35
39954;BME280;25631;51.516;-0.470;2023-07-02T02:25:36;100837.68;;;15.10;35.46
39954;BME280;25631;51.516;-0.470;2023-07-02T02:28:13;100842.43;;;15.26;35.32
39954;BME280;25631;51.516;-0.470;2023-07-02T02:30:50;100845.21;;;15.24;35.34
39954;BME280;25631;51.516;-0.470;2023-07-02T02:33:26;100845.90;;;15.28;35.38
39954;BME280;25631;51.516;-0.470;2023-07-02T02:36:03;100850.13;;;15.49;35.42
39954;BME280;25631;51.516;-0.470;2023-07-02T02:38:39;100850.31;;;15.65;35.42
39954;BME280;25631;51.516;-0.470;2023-07-02T02:41:16;100850.25;;;15.29;35.42
39954;BME280;25631;51.516;-0.470;2023-07-02T02:43:52;100850.66;;;15.23;35.54
39954;BME280;25631;51.516;-0.470;2023-07-02T02:46:29;100845.34;;;15.70;35.65
39954;BME280;25631;51.516;-0.470;2023-07-02T02:49:05;100848.02;;;15.34;35.66
39954;BME280;25631;51.516;-0.470;2023-07-02T02:51:42;100847.70;;;15.38;35.73
39954;BME280;25631;51.516;-0.470;2023-07-02T02:54:18;100846.66;;;15.16;35.92
39954;BME280;25631;51.516;-0.470;2023-07-02T02:56:54;100846.78;;;15.27;35.88
39954;BME280;25631;51.516;-0.470;2023-07-02T02:59:32;100845.67;;;15.11;36.15
39954;BME280;25631;51.516;-0.470;2023-07-02T03:02:08;100845.28;;;15.09;36.22
39954;BME280;25631;51.516;-0.470;2023-07-02T03:04:45;100844.17;;;15.23;36.22
39954;BME280;25631;51.516;-0.470;2023-07-02T03:07:21;100847.44;;;15.43;36.41
39954;BME280;25631;51.516;-0.470;2023-07-02T03:09:58;100847.08;;;15.15;36.50
39954;BME280;25631;51.516;-0.470;2023-07-02T03:12:34;100844.59;;;15.35;36.68
39954;BME280;25631;51.516;-0.470;2023-07-02T03:15:11;100847.20;;;15.38;36.71
39954;BME280;25631;51.516;-0.470;2023-07-02T03:17:47;100849.08;;;15.08;36.96
39954;BME280;25631;51.516;-0.470;2023-07-02T03:20:24;100850.55;;;15.11;36.91
39954;BME280;25631;51.516;-0.470;2023-07-02T03:23:00;100852.27;;;14.76;37.15
39954;BME280;25631;51.516;-0.470;2023-07-02T03:25:37;100851.09;;;15.10;37.02
39954;BME280;25631;51.516;-0.470;2023-07-02T03:28:13;100852.85;;;14.92;37.19
39954;BME280;25631;51.516;-0.470;2023-07-02T03:30:50;100853.61;;;14.77;37.35
39954;BME280;25631;51.516;-0.470;2023-07-02T03:33:26;100855.41;;;14.77;37.31
39954;BME280;25631;51.516;-0.470;2023-07-02T03:36:03;100854.90;;;14.74;37.47
39954;BME280;25631;51.516;-0.470;2023-07-02T03:38:40;100856.75;;;14.75;37.52
39954;BME280;25631;51.516;-0.470;2023-07-02T03:41:16;100858.29;;;14.62;37.85
39954;BME280;25631;51.516;-0.470;2023-07-02T03:43:53;100861.41;;;14.47;37.76
39954;BME280;25631;51.516;-0.470;2023-07-02T03:46:29;100863.34;;;14.57;37.85
39954;BME280;25631;51.516;-0.470;2023-07-02T03:49:06;100865.58;;;14.41;37.83
39954;BME280;25631;51.516;-0.470;2023-07-02T03:51:42;100864.06;;;14.46;37.83
39954;BME280;25631;51.516;-0.470;2023-07-02T03:54:19;100864.21;;;14.52;37.88
39954;BME280;25631;51.516;-0.470;2023-07-02T03:56:55;100863.60;;;14.24;37.96
39954;BME280;25631;51.516;-0.470;2023-07-02T03:59:32;100863.01;;;14.06;37.99
39954;BME280;25631;51.516;-0.470;2023-07-02T04:02:09;100866.86;;;14.23;38.15
39954;BME280;25631;51.516;-0.470;2023-07-02T04:04:45;100870.06;;;14.17;38.20
39954;BME280;25631;51.516;-0.470;2023-07-02T04:07:22;100870.40;;;14.06;38.19
39954;BME280;25631;51.516;-0.470;2023-07-02T04:09:58;100870.84;;;14.12;38.09
39954;BME280;25631;51.516;-0.470;2023-07-02T04:12:34;100866.83;;;14.23;38.00
39954;BME280;25631;51.516;-0.470;2023-07-02T04:15:11;100870.42;;;14.08;37.96
39954;BME280;25631;51.516;-0.470;2023-07-02T04:17:47;100868.73;;;14.36;37.83
39954;BME280;25631;51.516;-0.470;2023-07-02T04:20:24;100874.00;;;14.39;37.77
39954;BME280;25631;51.516;-0.470;2023-07-02T04:23:01;100878.95;;;14.27;37.77
39954;BME280;25631;51.516;-0.470;2023-07-02T04:25:37;100886.28;;;14.00;37.83
39954;BME280;25631;51.516;-0.470;2023-07-02T04:28:14;100885.76;;;13.97;37.80
39954;BME280;25631;51.516;-0.470;2023-07-02T04:30:50;100887.84;;;14.35;37.81
39954;BME280;25631;51.516;-0.470;2023-07-02T04:33:27;100887.53;;;14.08;37.75
39954;BME280;25631;51.516;-0.470;2023-07-02T04:36:04;100896.12;;;14.28;37.77
39954;BME280;25631;51.516;-0.470;2023-07-02T04:38:40;100897.80;;;14.04;37.74
39954;BME280;25631;51.516;-0.470;2023-07-02T04:41:18;100893.68;;;14.11;37.65
39954;BME280;25631;51.516;-0.470;2023-07-02T04:43:54;100890.45;;;13.97;37.79
39954;BME280;25631;51.516;-0.470;2023-07-02T04:46:31;100897.74;;;14.12;37.83
39954;BME280;25631;51.516;-0.470;2023-07-02T04:49:07;100901.92;;;13.98;37.77
39954;BME280;25631;51.516;-0.470;2023-07-02T04:51:44;100903.52;;;14.27;37.72
39954;BME280;25631;51.516;-0.470;2023-07-02T04:54:21;100906.39;;;14.28;37.66
39954;BME280;25631;51.516;-0.470;2023-07-02T04:56:57;100913.34;;;14.19;37.46
39954;BME280;25631;51.516;-0.470;2023-07-02T04:59:34;100913.65;;;14.08;37.46
39954;BME280;25631;51.516;-0.470;2023-07-02T05:02:11;100910.50;;;14.29;37.36
39954;BME280;25631;51.516;-0.470;2023-07-02T05:04:47;100912.13;;;14.22;37.26
39954;BME280;25631;51.516;-0.470;2023-07-02T05:07:24;100913.35;;;14.32;37.21
39954;BME280;25631;51.516;-0.470;2023-07-02T05:10:00;100918.39;;;14.45;37.15
39954;BME280;25631;51.516;-0.470;2023-07-02T05:12:37;100925.99;;;14.46;37.03
39954;BME280;25631;51.516;-0.470;2023-07-02T05:15:13;100929.80;;;14.66;36.97
39954;BME280;25631;51.516;-0.470;2023-07-02T05:17:49;100929.64;;;14.61;36.85
39954;BME280;25631;51.516;-0.470;2023-07-02T05:20:26;100929.22;;;14.29;36.84
39954;BME280;25631;51.516;-0.470;2023-07-02T05:23:02;100925.02;;;14.67;36.84
39954;BME280;25631;51.516;-0.470;2023-07-02T05:25:39;100925.68;;;14.37;36.90
39954;BME280;25631;51.516;-0.470;2023-07-02T05:28:15;100929.44;;;14.49;36.65
39954;BME280;25631;51.516;-0.470;2023-07-02T05:30:52;100930.85;;;14.64;36.71
39954;BME280;25631;51.516;-0.470;2023-07-02T05:33:28;100930.76;;;14.71;36.53
39954;BME280;25631;51.516;-0.470;2023-07-02T05:36:05;100930.58;;;14.55;36.50
39954;BME280;25631;51.516;-0.470;2023-07-02T05:38:41;100930.95;;;14.45;36.37
39954;BME280;25631;51.516;-0.470;2023-07-02T05:41:18;100930.26;;;14.43;36.57
39954;BME280;25631;51.516;-0.470;2023-07-02T05:43:55;100928.04;;;14.34;36.63
39954;BME280;25631;51.516;-0.470;2023-07-02T05:46:32;100925.41;;;14.29;36.66
39954;BME280;25631;51.516;-0.470;2023-07-02T05:49:08;100927.64;;;14.47;36.60
39954;BME280;25631;51.516;-0.470;2023-07-02T05:51:45;100924.41;;;14.39;36.58
39954;BME280;25631;51.516;-0.470;2023-07-02T05:54:21;100926.41;;;14.33;36.49
39954;BME280;25631;51.516;-0.470;2023-07-02T05:56:58;100928.70;;;14.45;36.31
39954;BME280;25631;51.516;-0.470;2023-07-02T05:59:34;100931.10;;;14.53;36.41
39954;BME280;25631;51.516;-0.470;2023-07-02T06:02:11;100933.62;;;14.40;36.52
39954;BME280;25631;51.516;-0.470;2023-07-02T06:04:47;100933.56;;;14.63;36.47
39954;BME280;25631;51.516;-0.470;2023-07-02T06:07:24;100933.03;;;14.86;36.10
39954;BME280;25631;51.516;-0.470;2023-07-02T06:10:01;100935.78;;;14.83;35.91
39954;BME280;25631;51.516;-0.470;2023-07-02T06:12:37;100935.74;;;14.86;35.93
39954;BME280;25631;51.516;-0.470;2023-07-02T06:15:14;100938.01;;;14.80;35.96
39954;BME280;25631;51.516;-0.470;2023-07-02T06:17:50;100946.22;;;14.69;35.99
39954;BME280;25631;51.516;-0.470;2023-07-02T06:20:27;100950.79;;;14.56;36.46
39954;BME280;25631;51.516;-0.470;2023-07-02T06:23:04;100953.93;;;14.63;36.56
39954;BME280;25631;51.516;-0.470;2023-07-02T06:25:40;100952.82;;;14.54;36.67
39954;BME280;25631;51.516;-0.470;2023-07-02T06:28:16;100954.37;;;14.52;36.45
39954;BME280;25631;51.516;-0.470;2023-07-02T06:30:53;100956.62;;;14.81;36.30
39954;BME280;25631;51.516;-0.470;2023-07-02T06:33:29;100957.87;;;14.99;36.01
39954;BME280;25631;51.516;-0.470;2023-07-02T06:36:06;100958.43;;;14.97;35.59
39954;BME280;25631;51.516;-0.470;2023-07-02T06:38:43;100957.14;;;15.24;35.51
39954;BME280;25631;51.516;-0.470;2023-07-02T06:41:20;100958.14;;;14.98;35.64
39954;BME280;25631;51.516;-0.470;2023-07-02T06:43:57;100960.30;;;15.08;35.56
39954;BME280;25631;51.516;-0.470;2023-07-02T06:46:34;100962.18;;;15.03;35.57
39954;BME280;25631;51.516;-0.470;2023-07-02T06:49:10;100968.81;;;15.31;35.58
39954;BME280;25631;51.516;-0.470;2023-07-02T06:51:47;100967.79;;;15.02;35.38
39954;BME280;25631;51.516;-0.470;2023-07-02T06:54:23;100974.83;;;15.26;35.23
39954;BME280;25631;51.516;-0.470;2023-07-02T06:57:00;100975.79;;;15.40;35.03
39954;BME280;25631;51.516;-0.470;2023-07-02T06:59:36;100977.64;;;15.44;35.18
39954;BME280;25631;51.516;-0.470;2023-07-02T07:02:13;100980.48;;;15.01;35.27
39954;BME280;25631;51.516;-0.470;2023-07-02T07:04:49;100977.88;;;15.30;35.21
39954;BME280;25631;51.516;-0.470;2023-07-02T07:07:26;100977.91;;;15.30;35.13
39954;BME280;25631;51.516;-0.470;2023-07-02T07:10:02;100984.50;;;15.21;35.01
39954;BME280;25631;51.516;-0.470;2023-07-02T07:12:39;100979.99;;;15.08;34.94
39954;BME280;25631;51.516;-0.470;2023-07-02T07:15:16;100988.25;;;15.30;34.83
39954;BME280;25631;51.516;-0.470;2023-07-02T07:17:52;100991.58;;;15.41;34.75
39954;BME280;25631;51.516;-0.470;2023-07-02T07:20:29;100991.12;;;15.46;34.52
39954;BME280;25631;51.516;-0.470;2023-07-02T07:23:06;100986.95;;;15.46;34.59
39954;BME280;25631;51.516;-0.470;2023-07-02T07:25:43;100985.35;;;15.46;34.34
39954;BME280;25631;51.516;-0.470;2023-07-02T07:28:19;100987.49;;;15.48;34.42
39954;BME280;25631;51.516;-0.470;2023-07-02T07:30:56;100989.27;;;15.67;33.88
39954;BME280;25631;51.516;-0.470;2023-07-02T07:33:32;100988.27;;;15.90;33.59
39954;BME280;25631;51.516;-0.470;2023-07-02T07:36:09;100987.43;;;16.02;33.81
39954;BME280;25631;51.516;-0.470;2023-07-02T07:38:45;100986.26;;;15.91;34.05
39954;BME280;25631;51.516;-0.470;2023-07-02T07:41:22;100986.92;;;15.91;33.96
39954;BME280;25631;51.516;-0.470;2023-07-02T07:43:58;100985.11;;;15.96;34.09
39954;BME280;25631;51.516;-0.470;2023-07-02T07:46:34;100984.86;;;16.14;33.95
39954;BME280;25631;51.516;-0.470;2023-07-02T07:49:13;100987.43;;;15.65;33.90
39954;BME280;25631;51.516;-0.470;2023-07-02T07:51:49;100983.36;;;15.36;34.07
39954;BME280;25631;51.516;-0.470;2023-07-02T07:54:26;100981.87;;;15.50;34.11
39954;BME280;25631;51.516;-0.470;2023-07-02T07:57:03;100980.24;;;15.71;34.15
39954;BME280;25631;51.516;-0.470;2023-07-02T07:59:40;100979.60;;;15.37;33.97
39954;BME280;25631;51.516;-0.470;2023-07-02T08:02:16;100975.35;;;15.64;33.85
39954;BME280;25631;51.516;-0.470;2023-07-02T08:04:53;100979.57;;;15.53;33.88
39954;BME280;25631;51.516;-0.470;2023-07-02T08:07:30;100978.09;;;16.12;33.23
39954;BME280;25631;51.516;-0.470;2023-07-02T08:10:07;100979.75;;;15.74;33.19
39954;BME280;25631;51.516;-0.470;2023-07-02T08:12:44;100976.40;;;15.76;33.20
39954;BME280;25631;51.516;-0.470;2023-07-02T08:15:21;100981.04;;;15.76;33.24
39954;BME280;25631;51.516;-0.470;2023-07-02T08:17:57;100979.94;;;16.07;32.71
39954;BME280;25631;51.516;-0.470;2023-07-02T08:20:34;100981.10;;;15.79;32.54
39954;BME280;25631;51.516;-0.470;2023-07-02T08:23:10;100972.35;;;15.77;32.92
39954;BME280;25631;51.516;-0.470;2023-07-02T08:25:47;100974.34;;;15.83;32.97
39954;BME280;25631;51.516;-0.470;2023-07-02T08:28:23;100981.24;;;16.27;32.89
39954;BME280;25631;51.516;-0.470;2023-07-02T08:31:00;100972.91;;;16.29;32.82
39954;BME280;25631;51.516;-0.470;2023-07-02T08:33:37;100972.38;;;16.28;32.74
39954;BME280;25631;51.516;-0.470;2023-07-02T08:36:13;100967.47;;;16.55;32.27
39954;BME280;25631;51.516;-0.470;2023-07-02T08:38:49;100967.86;;;16.57;32.27
39954;BME280;25631;51.516;-0.470;2023-07-02T08:41:26;100970.50;;;16.38;31.94
39954;BME280;25631;51.516;-0.470;2023-07-02T08:44:03;100974.14;;;16.33;31.90
39954;BME280;25631;51.516;-0.470;2023-07-02T08:46:40;100972.66;;;16.70;32.04
39954;BME280;25631;51.516;-0.470;2023-07-02T08:49:17;100971.75;;;16.63;32.23
39954;BME280;25631;51.516;-0.470;2023-07-02T08:51:54;100962.63;;;16.82;32.09
39954;BME280;25631;51.516;-0.470;2023-07-02T08:54:30;100965.89;;;16.84;32.15
39954;BME280;25631;51.516;-0.470;2023-07-02T08:57:07;100967.81;;;17.19;30.92
39954;BME280;25631;51.516;-0.470;2023-07-02T08:59:45;100970.99;;;17.17;30.40
39954;BME280;25631;51.516;-0.470;2023-07-02T09:02:31;100971.48;;;17.08;30.65
39954;BME280;25631;51.516;-0.470;2023-07-02T09:05:08;100970.54;;;17.63;30.68
39954;BME280;25631;51.516;-0.470;2023-07-02T09:07:45;100967.25;;;17.34;29.70
39954;BME280;25631;51.516;-0.470;2023-07-02T09:10:30;100972.37;;;17.62;29.28
39954;BME280;25631;51.516;-0.470;2023-07-02T09:13:07;100971.95;;;17.29;28.28
39954;BME280;25631;51.516;-0.470;2023-07-02T09:15:43;100962.92;;;17.44;28.58
39954;BME280;25631;51.516;-0.470;2023-07-02T09:18:21;100971.03;;;16.74;28.15
39954;BME280;25631;51.516;-0.470;2023-07-02T09:20:58;100972.23;;;16.84;28.49
39954;BME280;25631;51.516;-0.470;2023-07-02T09:23:35;100971.96;;;17.01;28.84
39954;BME280;25631;51.516;-0.470;2023-07-02T09:26:19;100970.43;;;17.04;28.95
39954;BME280;25631;51.516;-0.470;2023-07-02T09:29:01;100970.87;;;17.32;29.02
39954;BME280;25631;51.516;-0.470;2023-07-02T09:31:46;100962.95;;;17.38;28.85
39954;BME280;25631;51.516;-0.470;2023-07-02T09:34:29;100963.75;;;17.09;28.85
39954;BME280;25631;51.516;-0.470;2023-07-02T09:37:06;100967.52;;;17.84;28.71
39954;BME280;25631;51.516;-0.470;2023-07-02T09:39:43;100962.68;;;17.41;28.51
39954;BME280;25631;51.516;-0.470;2023-07-02T09:42:19;100960.34;;;17.69;28.27
39954;BME280;25631;51.516;-0.470;2023-07-02T09:44:58;100960.46;;;17.54;28.13
39954;BME280;25631;51.516;-0.470;2023-07-02T09:47:40;100959.17;;;17.64;28.26
39954;BME280;25631;51.516;-0.470;2023-07-02T09:50:18;100962.22;;;17.29;28.22
39954;BME280;25631;51.516;-0.470;2023-07-02T09:52:56;100963.74;;;17.81;28.05
39954;BME280;25631;51.516;-0.470;2023-07-02T09:55:33;100962.80;;;17.61;27.72
39954;BME280;25631;51.516;-0.470;2023-07-02T09:58:10;100961.35;;;17.78;27.06
39954;BME280;25631;51.516;-0.470;2023-07-02T10:00:46;100959.38;;;17.60;27.08
39954;BME280;25631;51.516;-0.470;2023-07-02T10:03:31;100955.81;;;17.79;27.40
39954;BME280;25631;51.516;-0.470;2023-07-02T10:06:08;100954.18;;;17.81;27.07
39954;BME280;25631;51.516;-0.470;2023-07-02T10:08:53;100952.72;;;17.65;27.65
39954;BME280;25631;51.516;-0.470;2023-07-02T10:11:36;100952.01;;;17.36;27.85
39954;BME280;25631;51.516;-0.470;2023-07-02T10:14:13;100949.43;;;17.28;27.45
39954;BME280;25631;51.516;-0.470;2023-07-02T10:16:51;100960.45;;;17.94;27.63
39954;BME280;25631;51.516;-0.470;2023-07-02T10:19:28;100962.44;;;17.49;26.32
39954;BME280;25631;51.516;-0.470;2023-07-02T10:22:05;100959.39;;;17.46;26.61
39954;BME280;25631;51.516;-0.470;2023-07-02T10:24:51;100964.00;;;17.24;27.05
39954;BME280;25631;51.516;-0.470;2023-07-02T10:27:36;100957.74;;;17.13;27.23
39954;BME280;25631;51.516;-0.470;2023-07-02T10:30:13;100958.35;;;17.24;27.55
39954;BME280;25631;51.516;-0.470;2023-07-02T10:32:49;100953.46;;;17.70;27.33
39954;BME280;25631;51.516;-0.470;2023-07-02T10:35:25;100957.16;;;17.88;27.15
39954;BME280;25631;51.516;-0.470;2023-07-02T10:38:02;100955.52;;;18.02;27.40
39954;BME280;25631;51.516;-0.470;2023-07-02T10:40:39;100957.87;;;18.48;27.42
39954;BME280;25631;51.516;-0.470;2023-07-02T10:43:24;100957.25;;;18.33;26.60
39954;BME280;25631;51.516;-0.470;2023-07-02T10:46:01;100956.51;;;18.31;26.36
39954;BME280;25631;51.516;-0.470;2023-07-02T10:48:37;100956.66;;;17.94;25.84
39954;BME280;25631;51.516;-0.470;2023-07-02T10:51:14;100954.65;;;18.00;25.94
39954;BME280;25631;51.516;-0.470;2023-07-02T10:53:56;100965.59;;;18.02;25.33
39954;BME280;25631;51.516;-0.470;2023-07-02T10:56:34;100958.91;;;18.21;25.48
39954;BME280;25631;51.516;-0.470;2023-07-02T10:59:11;100963.40;;;18.31;25.50
39954;BME280;25631;51.516;-0.470;2023-07-02T11:01:50;100965.71;;;18.32;25.83
39954;BME280;25631;51.516;-0.470;2023-07-02T11:04:27;100964.32;;;18.30;25.29
39954;BME280;25631;51.516;-0.470;2023-07-02T11:07:05;100972.77;;;18.32;24.96
39954;BME280;25631;51.516;-0.470;2023-07-02T11:09:50;100962.27;;;18.38;24.85
39954;BME280;25631;51.516;-0.470;2023-07-02T11:12:30;100965.27;;;18.40;24.94
39954;BME280;25631;51.516;-0.470;2023-07-02T11:15:07;100956.93;;;18.58;25.05
39954;BME280;25631;51.516;-0.470;2023-07-02T11:17:44;100956.20;;;18.84;24.74
39954;BME280;25631;51.516;-0.470;2023-07-02T11:20:20;100964.62;;;18.77;24.30
39954;BME280;25631;51.516;-0.470;2023-07-02T11:22:57;100954.70;;;18.93;24.30
39954;BME280;25631;51.516;-0.470;2023-07-02T11:25:33;100949.08;;;18.88;24.19
39954;BME280;25631;51.516;-0.470;2023-07-02T11:28:10;100948.62;;;18.92;23.85
39954;BME280;25631;51.516;-0.470;2023-07-02T11:30:47;100945.04;;;18.94;23.83
39954;BME280;25631;51.516;-0.470;2023-07-02T11:33:33;100952.10;;;18.89;24.32
39954;BME280;25631;51.516;-0.470;2023-07-02T11:36:21;100944.85;;;18.68;23.68
39954;BME280;25631;51.516;-0.470;2023-07-02T11:38:57;100950.15;;;18.78;23.22
39954;BME280;25631;51.516;-0.470;2023-07-02T11:41:37;100962.40;;;18.67;23.49
39954;BME280;25631;51.516;-0.470;2023-07-02T11:44:14;100953.58;;;18.86;23.59
39954;BME280;25631;51.516;-0.470;2023-07-02T11:46:50;100946.23;;;18.48;24.22
39954;BME280;25631;51.516;-0.470;2023-07-02T11:49:27;100941.49;;;18.64;24.25
39954;BME280;25631;51.516;-0.470;2023-07-02T11:52:04;100948.60;;;18.86;23.79
39954;BME280;25631;51.516;-0.470;2023-07-02T11:54:40;100945.27;;;19.26;23.24
39954;BME280;25631;51.516;-0.470;2023-07-02T11:57:17;100951.85;;;19.15;23.76
39954;BME280;25631;51.516;-0.470;2023-07-02T11:59:53;100948.05;;;19.41;23.08
39954;BME280;25631;51.516;-0.470;2023-07-02T12:02:30;100941.30;;;19.52;22.87
39954;BME280;25631;51.516;-0.470;2023-07-02T12:05:07;100944.53;;;19.37;22.46
39954;BME280;25631;51.516;-0.470;2023-07-02T12:07:43;100939.29;;;19.60;22.96
39954;BME280;25631;51.516;-0.470;2023-07-02T12:10:20;100943.36;;;19.38;23.15
39954;BME280;25631;51.516;-0.470;2023-07-02T12:12:56;100948.03;;;19.81;23.09
39954;BME280;25631;51.516;-0.470;2023-07-02T12:15:33;100946.58;;;19.65;22.92
39954;BME280;25631;51.516;-0.470;2023-07-02T12:18:10;100943.69;;;20.15;22.94
39954;BME280;25631;51.516;-0.470;2023-07-02T12:20:46;100950.11;;;20.04;22.79
39954;BME280;25631;51.516;-0.470;2023-07-02T12:23:23;100946.74;;;19.87;22.84
39954;BME280;25631;51.516;-0.470;2023-07-02T12:26:00;100948.45;;;19.80;23.54
39954;BME280;25631;51.516;-0.470;2023-07-02T12:28:36;100946.26;;;20.10;22.58
39954;BME280;25631;51.516;-0.470;2023-07-02T12:31:13;100942.53;;;19.83;22.50
39954;BME280;25631;51.516;-0.470;2023-07-02T12:33:49;100936.13;;;19.87;22.55
39954;BME280;25631;51.516;-0.470;2023-07-02T12:36:26;100931.18;;;19.65;22.58
39954;BME280;25631;51.516;-0.470;2023-07-02T12:39:02;100943.48;;;19.51;22.88
39954;BME280;25631;51.516;-0.470;2023-07-02T12:41:39;100939.00;;;19.55;22.89
39954;BME280;25631;51.516;-0.470;2023-07-02T12:44:15;100931.26;;;19.80;22.76
39954;BME280;25631;51.516;-0.470;2023-07-02T12:46:52;100933.03;;;19.82;22.89
39954;BME280;25631;51.516;-0.470;2023-07-02T12:49:28;100931.83;;;20.06;22.25
39954;BME280;25631;51.516;-0.470;2023-07-02T12:52:05;100937.26;;;19.98;22.60
39954;BME280;25631;51.516;-0.470;2023-07-02T12:54:42;100932.27;;;19.84;22.48
39954;BME280;25631;51.516;-0.470;2023-07-02T12:57:18;100932.12;;;20.07;22.21
39954;BME280;25631;51.516;-0.470;2023-07-02T12:59:55;100928.45;;;20.18;22.06
39954;BME280;25631;51.516;-0.470;2023-07-02T13:02:32;100937.60;;;20.35;22.16
39954;BME280;25631;51.516;-0.470;2023-07-02T13:05:08;100940.67;;;20.40;22.14
39954;BME280;25631;51.516;-0.470;2023-07-02T13:07:45;100932.40;;;20.44;22.09
39954;BME280;25631;51.516;-0.470;2023-07-02T13:10:22;100933.30;;;19.96;22.09
39954;BME280;25631;51.516;-0.470;2023-07-02T13:12:58;100941.46;;;19.62;22.54
39954;BME280;25631;51.516;-0.470;2023-07-02T13:15:34;100942.59;;;19.77;22.86
39954;BME280;25631;51.516;-0.470;2023-07-02T13:18:11;100938.58;;;20.24;22.95
39954;BME280;25631;51.516;-0.470;2023-07-02T13:20:48;100939.02;;;20.06;23.06
39954;BME280;25631;51.516;-0.470;2023-07-02T13:23:24;100944.80;;;20.25;22.93
39954;BME280;25631;51.516;-0.470;2023-07-02T13:26:01;100950.63;;;20.34;22.81
39954;BME280;25631;51.516;-0.470;2023-07-02T13:28:37;100943.94;;;19.89;23.18
39954;BME280;25631;51.516;-0.470;2023-07-02T13:31:14;100947.54;;;19.95;23.25